Time;durP1;ratioP1;P1;durP2;ratioP2;P2;SDS_P1;SDS_P2;PMS_P1;PMS_P2;Temp;Humidity;BMP_temperature;BMP_pressure;BME280_temperature;BME280_humidity;BME280_pressure;Samples;Min_cycle;Max_cycle;Signal;HPM_P1;HPM_P2
2023/03/27 00:01:01;;;;;;;20.70;14.70;;;;;;;1.97;74.88;99058.92;216325;1252;75341;-71
2023/03/27 00:06:02;;;;;;;23.20;15.80;;;;;;;1.95;74.95;99058.19;216436;1253;71267;-71
2023/03/27 00:10:55;;;;;;;22.00;14.70;;;;;;;1.91;75.20;99055.88;216291;1252;60442;-71
2023/03/27 00:15:52;;;;;;;19.70;13.30;;;;;;;1.90;75.21;99052.95;216394;1253;67200;-71
2023/03/27 00:20:45;;;;;;;21.60;15.60;;;;;;;1.87;75.16;99048.96;216130;1253;60442;-71
2023/03/27 00:25:39;;;;;;;20.00;14.40;;;;;;;1.85;75.34;99050.43;216262;1253;60440;-71
2023/03/27 00:30:32;;;;;;;24.20;16.40;;;;;;;1.83;75.40;99051.91;216172;1253;73198;-71
2023/03/27 00:35:28;;;;;;;21.90;14.70;;;;;;;1.81;75.30;99051.69;216082;1253;65495;-71
2023/03/27 00:40:22;;;;;;;20.20;15.30;;;;;;;1.78;75.29;99047.70;216124;1252;67210;-71
2023/03/27 00:45:20;;;;;;;19.70;13.40;;;;;;;1.71;75.34;99038.81;216268;1252;60468;-71
2023/03/27 00:50:20;;;;;;;22.80;14.40;;;;;;;1.63;75.75;99034.69;216148;1252;73503;-71
2023/03/27 00:55:18;;;;;;;18.00;12.90;;;;;;;1.57;75.36;99034.86;216024;1253;70589;-71
2023/03/27 01:00:15;;;;;;;19.50;13.80;;;;;;;1.50;75.56;99032.13;216036;1252;60528;-71
2023/03/27 01:05:10;;;;;;;21.20;14.20;;;;;;;1.45;75.31;99023.45;216167;1253;68181;-71
2023/03/27 01:10:05;;;;;;;18.50;12.90;;;;;;;1.38;75.74;99021.05;215966;1252;60488;-72
2023/03/27 01:15:17;;;;;;;20.40;14.10;;;;;;;1.29;75.30;99021.65;216411;1251;71622;-74
2023/03/27 01:20:45;;;;;;;18.00;13.60;;;;;;;1.19;75.58;99027.52;215993;1253;70834;-74
2023/03/27 01:25:57;;;;;;;20.00;13.90;;;;;;;1.10;75.52;99039.73;215942;1253;61098;-74
2023/03/27 01:30:58;;;;;;;18.10;13.20;;;;;;;1.01;75.53;99045.13;216152;1253;66910;-74
2023/03/27 01:36:13;;;;;;;21.90;16.00;;;;;;;0.99;75.62;99043.01;216320;1256;60390;-74
2023/03/27 01:41:34;;;;;;;18.10;12.90;;;;;;;0.97;75.93;99042.96;216073;1253;73542;-74
2023/03/27 01:46:35;;;;;;;23.60;15.10;;;;;;;0.94;75.59;99049.88;216185;1252;71310;-74
2023/03/27 01:51:38;;;;;;;21.00;14.30;;;;;;;0.92;75.76;99049.14;216110;1255;60380;-73
2023/03/27 01:56:38;;;;;;;24.10;15.30;;;;;;;0.91;75.82;99044.65;216096;1253;67039;-75
2023/03/27 02:01:38;;;;;;;21.60;15.00;;;;;;;0.88;76.09;99052.08;215950;1253;60428;-74
2023/03/27 02:06:36;;;;;;;22.60;14.50;;;;;;;0.83;75.71;99058.77;216132;1253;72737;-74
2023/03/27 02:11:36;;;;;;;22.70;14.60;;;;;;;0.79;75.88;99057.27;216019;1253;70394;-74
2023/03/27 02:16:34;;;;;;;20.70;14.30;;;;;;;0.73;75.73;99059.01;216024;1253;60583;-74
2023/03/27 02:21:30;;;;;;;19.10;13.70;;;;;;;0.68;75.83;99058.16;216145;1253;65747;-74
2023/03/27 02:26:24;;;;;;;22.10;15.80;;;;;;;0.66;75.97;99054.87;216280;1253;60448;-74
2023/03/27 02:31:36;;;;;;;20.00;15.00;;;;;;;0.63;75.89;99045.58;216246;1251;73903;-74
2023/03/27 02:36:54;;;;;;;21.10;14.00;;;;;;;0.62;76.12;99049.96;216166;1253;141373;-74
2023/03/27 02:42:03;;;;;;;20.00;15.40;;;;;;;0.59;76.12;99057.02;216144;1252;60549;-74
2023/03/27 02:47:27;;;;;;;26.10;15.90;;;;;;;0.55;76.46;99059.30;216509;1253;66986;-74
2023/03/27 02:52:28;;;;;;;24.50;17.30;;;;;;;0.52;76.63;99055.80;215066;1262;60461;-74
2023/03/27 02:57:26;;;;;;;24.90;16.50;;;;;;;0.50;76.32;99059.31;215099;1258;74575;-74
2023/03/27 03:02:40;;;;;;;26.60;18.30;;;;;;;0.44;76.34;99059.97;215075;1259;74192;-74
2023/03/27 03:07:34;;;;;;;22.90;15.50;;;;;;;0.38;76.27;99060.13;215341;1262;60508;-74
2023/03/27 03:12:27;;;;;;;21.60;14.70;;;;;;;0.31;76.38;99057.02;215138;1259;66794;-74
2023/03/27 03:17:20;;;;;;;21.80;15.50;;;;;;;0.25;76.04;99054.29;215120;1259;60464;-73
2023/03/27 03:22:14;;;;;;;20.70;14.90;;;;;;;0.22;76.42;99048.39;215261;1259;73987;-74
2023/03/27 03:27:07;;;;;;;18.80;13.50;;;;;;;0.18;76.39;99046.41;215380;1253;73777;-74
2023/03/27 03:32:22;;;;;;;20.50;13.80;;;;;;;0.10;76.04;99043.25;216458;1253;61374;-74
2023/03/27 03:37:16;;;;;;;20.50;14.40;;;;;;;0.07;76.19;99046.91;216186;1252;66139;-74
2023/03/27 03:42:10;;;;;;;20.30;15.30;;;;;;;0.05;76.35;99041.71;215997;1251;60663;-74
2023/03/27 03:47:17;;;;;;;20.60;15.00;;;;;;;0.00;76.29;99042.08;216081;1252;73564;-73
2023/03/27 03:52:09;;;;;;;20.80;15.30;;;;;;;-0.05;76.56;99040.75;216084;1253;60528;-73
2023/03/27 03:57:03;;;;;;;20.60;15.00;;;;;;;-0.08;76.50;99041.31;216129;1252;60531;-73
2023/03/27 04:01:57;;;;;;;19.40;14.30;;;;;;;-0.12;76.48;99041.70;216107;1251;67808;-71
2023/03/27 04:06:57;;;;;;;21.60;14.30;;;;;;;-0.16;76.35;99044.62;216101;1253;60464;-71
2023/03/27 04:11:53;;;;;;;18.50;12.70;;;;;;;-0.19;76.39;99051.67;216081;1252;74990;-71
2023/03/27 04:17:08;;;;;;;23.40;15.60;;;;;;;-0.18;76.64;99061.77;215992;1253;74481;-71
2023/03/27 04:22:02;;;;;;;22.20;14.60;;;;;;;-0.18;76.77;99068.73;216116;1253;60454;-71
2023/03/27 04:27:00;;;;;;;20.70;16.00;;;;;;;-0.13;77.04;99073.16;215954;1253;67785;-71
2023/03/27 04:32:08;;;;;;;21.30;15.20;;;;;;;-0.05;77.39;99077.70;215952;1253;60566;-71
2023/03/27 04:37:04;;;;;;;;;;;;;;;0.09;77.37;99080.52;216279;1253;72542;-72
2023/03/27 04:41:58;;;;;;;30.10;19.20;;;;;;;0.17;77.63;99085.39;216169;1251;73602;-71
2023/03/27 04:46:52;;;;;;;24.80;17.50;;;;;;;0.28;77.66;99088.80;216139;1254;60400;-71
2023/03/27 04:51:46;;;;;;;25.90;18.20;;;;;;;0.41;77.75;99086.14;216128;1251;65842;-71
2023/03/27 04:56:41;;;;;;;23.30;16.20;;;;;;;0.51;77.82;99092.06;215987;1253;60469;-71
2023/03/27 05:01:35;;;;;;;28.40;18.10;;;;;;;0.56;77.32;99086.10;215804;1251;74765;-71
2023/03/27 05:06:46;;;;;;;25.90;15.60;;;;;;;0.63;77.59;99092.80;216021;1253;71903;-71
2023/03/27 05:11:41;;;;;;;31.60;19.20;;;;;;;0.68;77.59;99094.98;216044;1253;60531;-71
2023/03/27 05:16:34;;;;;;;27.70;19.00;;;;;;;0.72;77.73;99091.89;215903;1253;65831;-71
2023/03/27 05:21:29;;;;;;;28.50;19.70;;;;;;;0.81;77.68;99084.63;216092;1253;60447;-71
2023/03/27 05:26:22;;;;;;;30.00;20.40;;;;;;;0.89;77.86;99085.21;216014;1252;73527;-71
2023/03/27 05:31:21;;;;;;;30.20;20.90;;;;;;;0.96;77.62;99088.82;215971;1253;72429;-71
2023/03/27 05:36:22;;;;;;;25.80;18.90;;;;;;;1.03;77.91;99097.56;215903;1253;60777;-71
2023/03/27 05:41:15;;;;;;;27.50;20.20;;;;;;;1.13;77.63;99109.80;216149;1251;65124;-71
2023/03/27 05:46:12;;;;;;;30.90;19.60;;;;;;;1.33;77.52;99110.20;215991;1255;60486;-70
2023/03/27 05:51:17;;;;;;;33.10;22.50;;;;;;;1.54;77.43;99107.36;215857;1253;74351;-71
2023/03/27 05:56:13;;;;;;;28.70;21.10;;;;;;;1.70;77.49;99109.34;216070;1253;71435;-72
2023/03/27 06:01:17;;;;;;;30.60;21.30;;;;;;;1.91;77.28;99109.88;215895;1253;61077;-71
2023/03/27 06:06:12;;;;;;;25.10;18.60;;;;;;;2.14;76.61;99118.66;215957;1252;65493;-71
2023/03/27 06:11:12;;;;;;;32.00;20.80;;;;;;;2.36;76.88;99122.10;215969;1253;60562;-71
2023/03/27 06:16:13;;;;;;;31.20;21.00;;;;;;;2.57;76.85;99127.58;215910;1253;74654;-71
2023/03/27 06:21:07;;;;;;;28.90;19.70;;;;;;;2.72;77.02;99125.00;215887;1253;73047;-71
2023/03/27 06:26:00;;;;;;;25.30;19.50;;;;;;;2.90;77.12;99126.08;215946;1252;60446;-71
2023/03/27 06:30:56;;;;;;;36.60;22.30;;;;;;;3.18;77.75;99130.30;215990;1252;65848;-71
2023/03/27 06:35:58;;;;;;;31.40;22.80;;;;;;;3.46;77.87;99139.61;215911;1257;60429;-71
2023/03/27 06:40:58;;;;;;;31.60;19.70;;;;;;;3.73;78.40;99147.51;218342;1253;73433;-71
2023/03/27 06:46:05;;;;;;;19.50;13.80;;;;;;;4.05;78.59;99147.59;215796;1253;72281;-71
2023/03/27 06:51:25;;;;;;;13.10;9.70;;;;;;;4.37;78.91;99151.41;215886;1253;60458;-72
2023/03/27 06:56:19;;;;;;;12.80;9.40;;;;;;;4.65;78.62;99154.08;215920;1253;67200;-71
2023/03/27 07:01:31;;;;;;;14.80;9.60;;;;;;;5.08;77.97;99154.04;215972;1253;60430;-72
2023/03/27 07:06:39;;;;;;;10.50;9.10;;;;;;;5.42;77.29;99153.11;216272;1253;73176;-71
2023/03/27 07:11:34;;;;;;;21.50;9.30;;;;;;;5.54;76.60;99151.89;216138;1253;72822;-71
2023/03/27 07:16:32;;;;;;;12.30;9.00;;;;;;;5.46;76.53;99155.40;216128;1253;60524;-71
2023/03/27 07:21:25;;;;;;;13.00;9.70;;;;;;;5.37;76.01;99169.88;216078;1251;67015;-71
2023/03/27 07:26:21;;;;;;;16.90;10.90;;;;;;;5.50;75.85;99178.29;216212;1254;60627;-73
2023/03/27 07:31:41;;;;;;;14.20;9.70;;;;;;;5.93;75.45;99177.27;216058;1253;72438;-73
2023/03/27 07:36:43;;;;;;;13.40;9.90;;;;;;;6.39;74.49;99175.16;216133;1253;71491;-72
2023/03/27 07:41:36;;;;;;;11.50;8.40;;;;;;;7.42;72.79;99175.17;216065;1252;60377;-74
2023/03/27 07:46:52;;;;;;;13.40;8.90;;;;;;;8.24;70.70;99174.96;216121;1252;67983;-73
2023/03/27 07:51:46;;;;;;;8.20;6.00;;;;;;;11.52;67.45;99170.34;216106;1252;60618;-74
2023/03/27 07:56:41;;;;;;;9.00;7.50;;;;;;;13.16;64.10;99172.09;216033;1253;80769;-73
2023/03/27 08:01:53;;;;;;;9.50;5.40;;;;;;;12.62;64.14;99184.65;216119;1253;72299;-72
2023/03/27 08:06:50;;;;;;;6.00;4.70;;;;;;;11.87;64.15;99186.39;216145;1253;60468;-73
2023/03/27 08:11:45;;;;;;;8.30;5.20;;;;;;;11.57;63.49;99193.85;216215;1253;66555;-73
2023/03/27 08:16:40;;;;;;;6.50;4.90;;;;;;;10.38;64.16;99203.04;216143;1255;60441;-73
2023/03/27 08:21:34;;;;;;;7.00;5.10;;;;;;;9.59;65.16;99213.63;216212;1256;74030;-74
2023/03/27 08:26:27;;;;;;;9.20;5.30;;;;;;;9.10;65.91;99217.01;216085;1253;71444;-74
2023/03/27 08:31:22;;;;;;;5.90;4.40;;;;;;;8.64;66.79;99224.45;216150;1256;60557;-73
2023/03/27 08:36:18;;;;;;;6.10;4.20;;;;;;;8.26;66.75;99233.83;216163;1253;68004;-72
2023/03/27 08:41:29;;;;;;;7.60;4.00;;;;;;;7.89;67.13;99242.86;216119;1253;60483;-73
2023/03/27 08:46:58;;;;;;;9.00;4.30;;;;;;;7.58;67.16;99242.02;215947;1253;72518;-73
2023/03/27 08:51:55;;;;;;;6.10;4.10;;;;;;;7.46;67.46;99240.05;216099;1252;73513;-73
2023/03/27 08:56:50;;;;;;;5.30;4.30;;;;;;;7.53;67.35;99242.69;216004;1252;60574;-72
2023/03/27 09:01:58;;;;;;;8.70;5.90;;;;;;;7.74;67.24;99245.02;216102;1255;65273;-73
2023/03/27 09:07:06;;;;;;;10.40;4.30;;;;;;;8.24;66.77;99246.60;216197;1252;61160;-73
2023/03/27 09:12:36;;;;;;;7.00;4.70;;;;;;;8.21;66.57;99250.22;216176;1253;74062;-72
2023/03/27 09:17:39;;;;;;;6.40;4.00;;;;;;;8.25;66.72;99252.98;215118;1259;71443;-72
2023/03/27 09:22:43;;;;;;;4.60;3.00;;;;;;;8.17;66.17;99255.38;214976;1262;61154;-73
2023/03/27 09:27:44;;;;;;;10.00;3.80;;;;;;;8.01;66.19;99267.75;215081;1259;66197;-72
2023/03/27 09:33:02;;;;;;;6.30;3.10;;;;;;;8.18;66.04;99265.92;215051;1259;60468;-73
2023/03/27 09:38:02;;;;;;;3.70;3.10;;;;;;;8.33;65.42;99273.90;214992;1258;74115;-73
2023/03/27 09:43:00;;;;;;;6.30;4.20;;;;;;;8.23;65.19;99287.69;215088;1261;74242;-72
2023/03/27 09:47:56;;;;;;;4.90;3.30;;;;;;;8.04;64.96;99290.71;215092;1258;60469;-72
2023/03/27 09:52:54;;;;;;;8.00;3.70;;;;;;;8.00;64.84;99300.71;215401;1253;65832;-72
2023/03/27 09:58:15;;;;;;;;;;;;;;;8.20;64.48;99295.45;216073;1255;60830;-73
2023/03/27 10:03:18;;;;;;;4.80;3.20;;;;;;;8.61;63.97;99302.84;215874;1253;72465;-73
2023/03/27 10:08:24;;;;;;;4.80;2.60;;;;;;;8.58;63.25;99303.70;216101;1253;71911;-73
2023/03/27 10:13:36;;;;;;;4.30;2.10;;;;;;;8.23;63.53;99308.92;216125;1253;60528;-73
2023/03/27 10:18:31;;;;;;;3.40;2.30;;;;;;;8.07;63.39;99321.10;216118;1253;60558;-73
2023/03/27 10:23:42;;;;;;;4.90;2.20;;;;;;;7.89;63.30;99321.01;216065;1253;60462;-72
2023/03/27 10:28:52;;;;;;;4.50;2.50;;;;;;;7.75;63.52;99326.44;216141;1256;76322;-73
2023/03/27 10:33:49;;;;;;;5.60;3.60;;;;;;;7.63;63.53;99333.27;216163;1252;72567;-73
2023/03/27 10:39:14;;;;;;;7.40;3.60;;;;;;;7.66;63.55;99338.99;215479;1253;60463;-73
2023/03/27 10:44:27;;;;;;;4.50;2.80;;;;;;;7.62;63.00;99344.30;216220;1253;67050;-73
2023/03/27 10:49:33;;;;;;;7.90;3.30;;;;;;;7.46;62.46;99347.11;216167;1253;60414;-72
2023/03/27 10:54:42;;;;;;;4.50;2.70;;;;;;;7.49;62.90;99346.27;216278;1254;73936;-72
2023/03/27 11:00:06;;;;;;;4.70;2.70;;;;;;;7.67;62.13;99348.48;216218;1252;72817;-72
2023/03/27 11:05:31;;;;;;;8.20;3.60;;;;;;;7.98;61.74;99347.80;216227;1257;60448;-73
2023/03/27 11:10:40;;;;;;;4.90;2.80;;;;;;;8.31;60.68;99350.55;216031;1256;68005;-73
2023/03/27 11:15:42;;;;;;;5.30;2.50;;;;;;;8.50;60.60;99354.80;216248;1254;60451;-72
2023/03/27 11:21:27;;;;;;;5.30;2.60;;;;;;;8.37;59.83;99353.52;216208;1257;74753;-73
2023/03/27 11:26:38;;;;;;;2.20;1.90;;;;;;;8.13;59.46;99356.67;215067;1263;72916;-72
2023/03/27 11:31:45;;;;;;;3.20;2.00;;;;;;;8.22;59.15;99363.98;215012;1260;60413;-72
2023/03/27 11:36:56;;;;;;;4.00;2.60;;;;;;;8.55;58.41;99356.73;215089;1262;65876;-73
2023/03/27 11:42:04;;;;;;;4.90;2.80;;;;;;;9.29;57.59;99351.98;215106;1263;60465;-74
2023/03/27 11:47:28;;;;;;;3.50;2.20;;;;;;;10.87;55.87;99343.80;215102;1261;75204;-75
2023/03/27 11:53:00;;;;;;;3.80;2.70;;;;;;;10.03;55.51;99361.79;214196;1267;73718;-72
2023/03/27 11:58:31;;;;;;;2.90;2.20;;;;;;;8.92;55.79;99363.90;214092;1266;61685;-73
2023/03/27 12:03:58;;;;;;;5.40;2.40;;;;;;;8.35;56.28;99372.33;214683;1261;68567;-72
2023/03/27 12:09:26;;;;;;;6.50;2.40;;;;;;;8.75;56.33;99366.11;214724;1265;60569;-73
2023/03/27 12:15:12;;;;;;;3.00;2.40;;;;;;;8.74;56.16;99363.35;214766;1261;72384;-72
2023/03/27 12:20:44;;;;;;;4.00;2.20;;;;;;;8.39;56.23;99370.63;214767;1265;72378;-73
2023/03/27 12:26:25;;;;;;;4.70;2.90;;;;;;;8.00;56.00;99366.95;214704;1265;60459;-72
2023/03/27 12:31:48;;;;;;;;;;;;;;;8.15;56.28;99370.16;216067;1256;65541;-72
2023/03/27 12:36:46;;;;;;;2.10;1.90;;;;;;;8.45;56.07;99374.46;216263;1254;60402;-72
2023/03/27 12:41:44;;;;;;;2.60;1.90;;;;;;;8.50;54.80;99377.59;216160;1254;72120;-73
2023/03/27 12:47:17;;;;;;;2.20;1.90;;;;;;;8.21;54.97;99380.20;216124;1256;71899;-73
2023/03/27 12:52:10;;;;;;;2.40;1.80;;;;;;;8.13;54.99;99386.02;216242;1255;60457;-73
2023/03/27 12:57:17;;;;;;;2.20;1.60;;;;;;;8.72;54.51;99388.05;216243;1254;67358;-72
2023/03/27 13:02:15;;;;;;;;;;;;;;;8.64;54.24;99388.17;216040;1253;60403;-73
2023/03/27 13:07:43;;;;;;;1.90;1.70;;;;;;;8.20;53.76;99398.48;216096;1256;76005;-72
2023/03/27 13:12:59;;;;;;;2.00;1.60;;;;;;;8.06;54.22;99400.66;216133;1257;71423;-73
2023/03/27 13:18:41;;;;;;;3.40;2.00;;;;;;;8.39;54.56;99404.64;216124;1253;60445;-73
2023/03/27 13:23:59;;;;;;;1.60;1.50;;;;;;;8.39;53.92;99412.58;216092;1253;67032;-72
2023/03/27 13:28:55;;;;;;;2.90;1.50;;;;;;;8.12;53.94;99416.75;216182;1254;60469;-72
2023/03/27 13:34:11;;;;;;;3.30;2.00;;;;;;;7.85;54.06;99413.29;216216;1257;73499;-72
2023/03/27 13:39:06;;;;;;;2.70;2.10;;;;;;;7.69;54.26;99419.55;216040;1252;71468;-73
2023/03/27 13:44:01;;;;;;;2.20;1.90;;;;;;;7.65;53.93;99422.45;216143;1256;60450;-72
2023/03/27 13:49:26;;;;;;;3.00;1.90;;;;;;;7.67;54.24;99424.88;216184;1254;66717;-72
2023/03/27 13:54:46;;;;;;;1.70;1.60;;;;;;;7.51;54.06;99437.50;216157;1255;60600;-71
2023/03/27 13:59:51;;;;;;;2.70;1.90;;;;;;;7.16;54.09;99453.53;216140;1254;72994;-73
2023/03/27 14:05:42;;;;;;;1.90;1.40;;;;;;;6.85;54.73;99463.54;216129;1254;71743;-73
2023/03/27 14:11:00;;;;;;;3.50;1.50;;;;;;;6.66;55.07;99482.40;215190;1261;60425;-73
2023/03/27 14:16:12;;;;;;;1.80;1.50;;;;;;;6.59;55.44;99497.14;215215;1260;66559;-73
2023/03/27 14:21:12;;;;;;;1.80;1.70;;;;;;;6.61;55.63;99505.42;215245;1260;60602;-72
2023/03/27 14:26:20;;;;;;;2.20;1.60;;;;;;;6.67;55.94;99507.91;215241;1261;72662;-72
2023/03/27 14:31:17;;;;;;;5.20;3.00;;;;;;;6.68;55.73;99501.39;215239;1260;71342;-72
2023/03/27 14:36:29;;;;;;;2.90;2.20;;;;;;;6.51;56.14;99511.13;215120;1261;150399;-72
2023/03/27 14:41:24;;;;;;;3.50;2.10;;;;;;;6.26;56.51;99517.14;215307;1253;68022;-73
2023/03/27 14:46:23;;;;;;;3.80;2.20;;;;;;;6.00;56.58;99530.16;216287;1256;60454;-71
2023/03/27 14:51:20;;;;;;;3.00;2.30;;;;;;;5.81;57.11;99537.20;216248;1254;74584;-73
2023/03/27 14:56:36;;;;;;;4.10;3.20;;;;;;;5.68;57.54;99549.68;216086;1251;73507;-73
2023/03/27 15:01:54;;;;;;;3.00;2.70;;;;;;;5.54;58.21;99561.98;216122;1254;60249;-73
2023/03/27 15:06:48;;;;;;;5.50;2.10;;;;;;;5.37;58.50;99577.14;216164;1254;67720;-74
2023/03/27 15:12:03;;;;;;;6.90;2.00;;;;;;;5.19;59.07;99591.55;216035;1254;60548;-73
2023/03/27 15:17:08;;;;;;;2.30;1.60;;;;;;;5.05;59.71;99597.78;216113;1255;73581;-73
2023/03/27 15:22:06;;;;;;;4.00;3.00;;;;;;;4.93;59.98;99614.35;216110;1254;70061;-73
2023/03/27 15:27:00;;;;;;;;;;;;;;;4.82;60.14;99626.46;215923;1251;60623;-72
2023/03/27 15:31:58;;;;;;;2.60;2.10;;;;;;;4.70;60.38;99634.61;216063;1255;65662;-73
2023/03/27 15:36:58;;;;;;;2.30;2.10;;;;;;;4.65;60.57;99650.62;216152;1254;60544;-72
2023/03/27 15:41:55;;;;;;;4.20;2.40;;;;;;;4.59;60.91;99657.70;216199;1253;73787;-72
2023/03/27 15:46:53;;;;;;;4.30;3.90;;;;;;;4.50;60.41;99670.00;216058;1253;72805;-73
2023/03/27 15:51:46;;;;;;;4.30;3.40;;;;;;;4.39;60.18;99684.66;216211;1253;61101;-73
2023/03/27 15:56:43;;;;;;;4.90;3.10;;;;;;;4.26;60.14;99687.41;216117;1253;60508;-73
2023/03/27 16:01:42;;;;;;;5.90;4.80;;;;;;;4.18;59.98;99698.70;216255;1252;60445;-72
2023/03/27 16:06:39;;;;;;;5.60;3.40;;;;;;;4.10;60.00;99705.69;216290;1253;73861;-73
2023/03/27 16:11:44;;;;;;;3.10;2.50;;;;;;;4.02;59.77;99700.17;216175;1253;71820;-73
2023/03/27 16:16:37;;;;;;;5.00;2.80;;;;;;;3.95;60.04;99708.04;216283;1253;60992;-73
2023/03/27 16:21:34;;;;;;;8.40;5.80;;;;;;;3.93;60.18;99717.57;216280;1251;60331;-73
2023/03/27 16:26:30;;;;;;;;;;;;;;;3.82;59.90;99732.70;216220;1254;60453;-73
2023/03/27 16:31:23;;;;;;;3.40;2.00;;;;;;;3.72;59.86;99750.93;216142;1254;74097;-73
2023/03/27 16:36:20;;;;;;;7.30;4.70;;;;;;;3.59;59.79;99762.88;216102;1253;71660;-73
2023/03/27 16:41:14;;;;;;;10.50;6.70;;;;;;;3.55;59.92;99778.52;216119;1253;60464;-73
2023/03/27 16:46:16;;;;;;;8.90;5.30;;;;;;;3.53;60.28;99788.93;216244;1254;66940;-73
2023/03/27 16:51:10;;;;;;;12.50;5.90;;;;;;;3.51;60.14;99798.80;216191;1253;60482;-73
2023/03/27 16:56:03;;;;;;;4.90;3.60;;;;;;;3.46;60.50;99813.90;216236;1251;60463;-73
2023/03/27 17:00:57;;;;;;;5.80;2.90;;;;;;;3.43;60.76;99817.94;215831;1254;72861;-73
2023/03/27 17:05:50;;;;;;;4.00;2.90;;;;;;;3.38;60.82;99828.91;216569;1252;60839;-73
2023/03/27 17:10:44;;;;;;;3.90;2.40;;;;;;;3.30;61.21;99834.64;216172;1253;66900;-72
2023/03/27 17:15:39;;;;;;;4.20;2.30;;;;;;;3.23;61.13;99840.23;216172;1251;60422;-73
2023/03/27 17:20:32;;;;;;;6.10;4.80;;;;;;;3.19;61.73;99850.72;216975;1251;73483;-73
2023/03/27 17:25:25;;;;;;;5.20;3.10;;;;;;;3.15;61.82;99861.55;216200;1253;73395;-74
2023/03/27 17:30:18;;;;;;;17.60;9.20;;;;;;;3.12;61.79;99868.64;216686;1252;60453;-73
2023/03/27 17:35:26;;;;;;;7.70;5.00;;;;;;;3.09;61.93;99876.94;215922;1253;68195;-73
2023/03/27 17:40:19;;;;;;;8.60;5.70;;;;;;;3.03;62.23;99882.40;215958;1252;60556;-74
2023/03/27 17:45:12;;;;;;;7.00;4.40;;;;;;;3.00;62.00;99880.77;215869;1253;60567;-73
2023/03/27 17:50:05;;;;;;;9.10;5.90;;;;;;;2.94;61.86;99884.14;216269;1252;60541;-73
2023/03/27 17:54:58;;;;;;;12.90;7.00;;;;;;;2.86;61.75;99900.13;216674;1251;60387;-73
2023/03/27 17:59:51;;;;;;;13.50;5.90;;;;;;;2.81;61.88;99910.92;215968;1252;66566;-73
2023/03/27 18:04:46;;;;;;;10.30;5.40;;;;;;;2.79;61.72;99909.96;216397;1253;60516;-73
2023/03/27 18:09:39;;;;;;;7.60;3.80;;;;;;;2.78;61.78;99922.27;216229;1251;73840;-73
2023/03/27 18:14:32;;;;;;;11.20;7.50;;;;;;;2.77;61.68;99922.39;216199;1251;60444;-73
2023/03/27 18:19:25;;;;;;;8.00;5.00;;;;;;;2.77;61.74;99930.61;216113;1253;60454;-73
2023/03/27 18:24:18;;;;;;;6.50;4.20;;;;;;;2.73;61.49;99935.95;216104;1253;60480;-72
2023/03/27 18:29:11;;;;;;;6.70;4.70;;;;;;;2.70;61.37;99945.08;216143;1255;60995;-72
2023/03/27 18:34:04;;;;;;;4.60;3.40;;;;;;;2.70;60.94;99953.63;216289;1251;60466;-72
2023/03/27 18:38:57;;;;;;;9.90;6.20;;;;;;;2.66;61.06;99960.69;216342;1253;60443;-73
2023/03/27 18:43:50;;;;;;;8.20;4.50;;;;;;;2.60;60.55;99968.70;216124;1252;60521;-72
2023/03/27 18:48:44;;;;;;;13.90;6.50;;;;;;;2.49;59.85;99979.73;215992;1252;60559;-73
2023/03/27 18:53:37;;;;;;;13.20;6.00;;;;;;;2.38;59.57;99988.37;215983;1252;60480;-73
2023/03/27 18:58:30;;;;;;;10.70;5.90;;;;;;;2.24;59.35;99992.83;216025;1252;60536;-73
2023/03/27 19:03:24;;;;;;;6.50;3.40;;;;;;;2.13;59.12;99991.03;215938;1253;60435;-72
2023/03/27 19:08:18;;;;;;;9.40;5.50;;;;;;;2.01;58.98;99990.20;216361;1252;64975;-72
2023/03/27 19:13:11;;;;;;;10.20;3.70;;;;;;;1.92;59.07;99997.35;216043;1252;67784;-73
2023/03/27 19:18:28;;;;;;;5.80;3.90;;;;;;;1.79;58.77;100004.04;215721;1252;60447;-73
2023/03/27 19:23:40;;;;;;;6.20;2.90;;;;;;;1.70;58.77;100007.42;216232;1254;72426;-73
2023/03/27 19:28:33;;;;;;;7.50;3.20;;;;;;;1.62;58.05;100010.15;216256;1253;60515;-72
2023/03/27 19:33:26;;;;;;;3.40;1.90;;;;;;;1.51;57.83;100015.35;215996;1253;60538;-73
2023/03/27 19:38:20;;;;;;;2.80;2.30;;;;;;;1.42;58.05;100012.23;215958;1252;67076;-72
2023/03/27 19:43:14;;;;;;;3.70;2.60;;;;;;;1.35;57.93;100013.29;216211;1252;60444;-72
2023/03/27 19:48:07;;;;;;;11.60;7.00;;;;;;;1.28;58.20;100023.06;215916;1255;73796;-72
2023/03/27 19:53:00;;;;;;;7.30;3.20;;;;;;;1.19;58.38;100027.80;216001;1252;60430;-72
2023/03/27 19:58:00;;;;;;;5.70;3.00;;;;;;;1.13;58.04;100028.73;216049;1253;60464;-72
2023/03/27 20:02:53;;;;;;;3.60;2.70;;;;;;;1.04;58.12;100034.67;215986;1253;60519;-73
2023/03/27 20:07:46;;;;;;;7.80;3.80;;;;;;;0.98;58.12;100038.52;215857;1252;60463;-73
2023/03/27 20:12:40;;;;;;;12.80;6.30;;;;;;;0.95;58.26;100043.80;215932;1252;60604;-72
2023/03/27 20:17:33;;;;;;;19.70;10.60;;;;;;;0.89;58.38;100051.21;215950;1255;71475;-73
2023/03/27 20:22:28;;;;;;;14.00;4.80;;;;;;;0.82;58.52;100055.31;215951;1252;61058;-73
2023/03/27 20:27:21;;;;;;;17.80;6.90;;;;;;;0.73;58.55;100057.00;215994;1253;66122;-73
2023/03/27 20:32:15;;;;;;;19.70;6.20;;;;;;;0.66;58.64;100061.95;216042;1253;60476;-73
2023/03/27 20:37:10;;;;;;;11.90;5.20;;;;;;;0.61;58.78;100067.00;216106;1252;73553;-73
2023/03/27 20:42:29;;;;;;;12.90;6.50;;;;;;;0.52;59.23;100067.80;216044;1252;71265;-72
2023/03/27 20:47:22;;;;;;;15.20;6.60;;;;;;;0.46;58.94;100065.44;216047;1251;60450;-73
2023/03/27 20:52:21;;;;;;;9.00;5.10;;;;;;;0.42;58.86;100063.56;215937;1253;60520;-73
2023/03/27 20:57:14;;;;;;;14.60;8.20;;;;;;;0.35;58.78;100064.44;215523;1252;61048;-73
2023/03/27 21:02:15;;;;;;;10.00;3.60;;;;;;;0.29;58.95;100069.42;216163;1253;74680;-73
2023/03/27 21:07:08;;;;;;;11.00;5.00;;;;;;;0.22;58.71;100069.95;216073;1253;70329;-73
2023/03/27 21:12:01;;;;;;;11.70;4.70;;;;;;;0.11;58.59;100070.97;216370;1252;60470;-73
2023/03/27 21:16:54;;;;;;;9.10;4.00;;;;;;;0.03;58.46;100065.29;216038;1254;66749;-73
2023/03/27 21:21:48;;;;;;;7.00;3.60;;;;;;;-0.06;58.43;100066.90;215956;1252;60502;-73
2023/03/27 21:26:41;;;;;;;5.70;3.30;;;;;;;-0.14;58.23;100069.05;216352;1252;73757;-73
2023/03/27 21:31:34;;;;;;;7.50;4.00;;;;;;;-0.21;58.27;100068.05;216000;1252;71654;-73
2023/03/27 21:36:27;;;;;;;5.30;2.70;;;;;;;-0.29;58.38;100080.05;215936;1253;60520;-73
2023/03/27 21:41:22;;;;;;;4.90;2.80;;;;;;;-0.36;58.33;100076.79;216472;1252;66931;-73
2023/03/27 21:46:15;;;;;;;3.90;2.30;;;;;;;-0.46;58.32;100074.11;216582;1252;60434;-73
2023/03/27 21:51:09;;;;;;;4.50;3.00;;;;;;;-0.54;58.33;100069.27;216086;1252;73791;-73
2023/03/27 21:56:02;;;;;;;2.70;2.00;;;;;;;-0.60;58.50;100065.08;216125;1252;72458;-72
2023/03/27 22:00:57;;;;;;;4.00;2.40;;;;;;;-0.65;58.35;100066.52;216184;1251;60520;-72
2023/03/27 22:05:50;;;;;;;4.40;2.90;;;;;;;-0.73;58.60;100061.83;215997;1252;68137;-73
2023/03/27 22:10:58;;;;;;;7.60;3.20;;;;;;;-0.76;58.63;100060.65;217207;1253;60437;-73
2023/03/27 22:15:51;;;;;;;4.30;2.70;;;;;;;-0.79;58.82;100069.91;215993;1253;72253;-73
2023/03/27 22:20:44;;;;;;;4.80;2.10;;;;;;;-0.80;58.74;100072.20;216499;1252;60554;-73
2023/03/27 22:25:36;;;;;;;3.60;2.50;;;;;;;-0.85;59.14;100076.22;216130;1253;63852;-73
2023/03/27 22:30:29;;;;;;;3.50;1.40;;;;;;;-0.90;59.33;100078.82;216159;1253;60434;-72
2023/03/27 22:35:22;;;;;;;2.50;2.00;;;;;;;-1.02;59.26;100088.07;216475;1252;60921;-72
2023/03/27 22:40:15;;;;;;;3.10;1.80;;;;;;;-1.11;59.76;100086.71;216192;1252;60496;-72
2023/03/27 22:45:09;;;;;;;3.00;2.10;;;;;;;-1.18;59.87;100086.36;216485;1251;60547;-73
2023/03/27 22:50:03;;;;;;;5.20;2.60;;;;;;;-1.25;60.21;100085.30;216043;1256;61581;-73
2023/03/27 22:54:57;;;;;;;4.10;2.60;;;;;;;-1.34;60.28;100080.91;216035;1252;68601;-73
2023/03/27 22:59:50;;;;;;;10.10;2.50;;;;;;;-1.39;60.51;100082.02;216169;1252;60552;-73
2023/03/27 23:04:42;;;;;;;4.20;2.60;;;;;;;-1.43;60.59;100080.79;215987;1252;60333;-73
2023/03/27 23:09:35;;;;;;;4.60;2.30;;;;;;;-1.46;60.74;100080.74;216050;1251;60484;-73
2023/03/27 23:14:28;;;;;;;4.20;3.00;;;;;;;-1.52;60.84;100087.41;216236;1252;60573;-73
2023/03/27 23:19:21;;;;;;;3.80;2.40;;;;;;;-1.61;61.14;100092.73;216367;1251;60441;-73
2023/03/27 23:24:14;;;;;;;4.00;2.60;;;;;;;-1.68;61.41;100094.51;216148;1253;60431;-73